createdAt,value
2018-11-29T00:01:16.608Z,27.17
2018-11-29T00:03:47.050Z,28.63
2018-11-29T00:06:17.423Z,26.57
2018-11-29T00:08:47.543Z,26.70
2018-11-29T00:11:17.599Z,28.33
2018-11-29T00:13:48.074Z,27.13
2018-11-29T00:16:18.087Z,25.37
2018-11-29T00:18:48.419Z,29.77
2018-11-29T00:21:18.590Z,25.67
2018-11-29T00:23:48.604Z,28.20
2018-11-29T00:26:19.159Z,28.80
2018-11-29T00:28:49.083Z,28.40
2018-11-29T00:31:19.114Z,27.37
2018-11-29T00:33:55.735Z,26.17
2018-11-29T00:36:25.679Z,27.70
2018-11-29T00:38:55.526Z,25.97
2018-11-29T00:41:25.852Z,26.13
2018-11-29T00:43:56.007Z,25.60
2018-11-29T00:46:26.229Z,24.07
2018-11-29T00:48:55.932Z,24.90
2018-11-29T00:51:25.866Z,24.93
2018-11-29T00:53:55.804Z,25.70
2018-11-29T00:56:25.700Z,25.73
2018-11-29T00:58:55.470Z,24.00
2018-11-29T01:01:25.515Z,25.03
2018-11-29T01:03:55.309Z,24.07
2018-11-29T01:06:25.270Z,25.07
2018-11-29T01:08:56.372Z,24.90
2018-11-29T01:11:26.382Z,25.13
2018-11-29T01:13:56.167Z,23.57
2018-11-29T01:16:26.158Z,23.80
2018-11-29T01:18:55.960Z,26.50
2018-11-29T01:21:26.097Z,27.13
2018-11-29T01:23:55.794Z,26.67
2018-11-29T01:26:25.650Z,24.57
2018-11-29T01:28:56.327Z,24.03
2018-11-29T01:31:26.961Z,24.53
2018-11-29T01:33:56.758Z,23.80
2018-11-29T01:36:26.832Z,27.40
2018-11-29T01:38:57.697Z,24.87
2018-11-29T01:41:27.647Z,25.40
2018-11-29T01:43:57.367Z,24.93
2018-11-29T01:46:27.107Z,24.23
2018-11-29T01:48:57.109Z,25.20
2018-11-29T01:51:27.228Z,22.23
2018-11-29T01:53:57.830Z,23.87
2018-11-29T01:56:27.659Z,28.53
2018-11-29T01:58:58.168Z,25.07
2018-11-29T02:01:28.093Z,28.27
2018-11-29T02:03:57.968Z,25.33
2018-11-29T02:06:27.949Z,23.50
2018-11-29T02:08:59.394Z,26.20
2018-11-29T02:11:30.228Z,26.40
2018-11-29T02:13:59.968Z,27.20
2018-11-29T02:16:29.955Z,28.83
2018-11-29T02:19:00.184Z,27.90
2018-11-29T02:21:30.772Z,30.33
2018-11-29T02:24:01.176Z,30.00
2018-11-29T02:26:31.125Z,29.13
2018-11-29T02:29:01.245Z,30.97
2018-11-29T02:31:38.871Z,33.63
2018-11-29T02:34:08.942Z,29.90
2018-11-29T02:36:38.667Z,31.97
2018-11-29T02:39:10.038Z,31.20
2018-11-29T02:41:39.980Z,30.30
2018-11-29T02:44:09.952Z,34.23
2018-11-29T02:46:39.723Z,30.57
2018-11-29T02:49:09.447Z,26.93
2018-11-29T02:51:39.249Z,28.73
2018-11-29T02:54:09.470Z,26.00
2018-11-29T02:56:39.280Z,28.07
2018-11-29T02:59:09.111Z,25.77
2018-11-29T03:01:39.078Z,25.93
2018-11-29T03:04:08.819Z,23.77
2018-11-29T03:06:39.515Z,25.00
2018-11-29T03:09:09.608Z,24.27
2018-11-29T03:11:42.547Z,24.30
2018-11-29T03:14:12.333Z,24.00
2018-11-29T03:16:42.074Z,22.73
2018-11-29T03:19:12.128Z,28.17
2018-11-29T03:21:41.850Z,22.43
2018-11-29T03:24:11.633Z,23.00
2018-11-29T03:26:41.393Z,23.33
2018-11-29T03:29:11.235Z,24.03
2018-11-29T03:31:41.351Z,22.73
2018-11-29T03:34:11.053Z,24.83
2018-11-29T03:36:40.771Z,20.00
2018-11-29T03:39:10.899Z,22.53
2018-11-29T03:41:41.087Z,22.87
2018-11-29T03:44:11.323Z,21.53
2018-11-29T03:46:41.357Z,19.03
2018-11-29T03:49:13.568Z,22.23
2018-11-29T03:51:43.500Z,22.60
2018-11-29T03:54:13.254Z,21.67
2018-11-29T03:56:43.107Z,21.43
2018-11-29T03:59:13.128Z,25.37
2018-11-29T04:01:42.838Z,21.33
2018-11-29T04:04:12.804Z,22.50
2018-11-29T04:06:42.507Z,21.83
2018-11-29T04:09:12.412Z,21.30
2018-11-29T04:11:42.518Z,20.70
2018-11-29T04:14:12.262Z,18.23
2018-11-29T04:16:42.681Z,19.70
2018-11-29T04:19:12.506Z,22.57
2018-11-29T04:21:43.041Z,17.70
2018-11-29T04:24:12.709Z,19.90
2018-11-29T04:26:42.718Z,20.20
2018-11-29T04:29:12.526Z,17.70
2018-11-29T04:31:42.633Z,16.37
2018-11-29T04:34:13.012Z,22.43
2018-11-29T04:36:43.276Z,18.10
2018-11-29T04:39:13.458Z,19.37
2018-11-29T04:41:43.189Z,20.43
2018-11-29T04:44:12.906Z,18.37
2018-11-29T04:46:47.857Z,21.80
2018-11-29T04:49:18.090Z,19.73
2018-11-29T04:51:48.503Z,19.00
2018-11-29T04:54:18.611Z,19.07
2018-11-29T04:56:48.740Z,20.50
2018-11-29T04:59:18.888Z,18.80
2018-11-29T05:01:49.721Z,21.43
2018-11-29T05:04:20.036Z,20.97
2018-11-29T05:06:49.786Z,20.40
2018-11-29T05:09:19.698Z,21.43
2018-11-29T05:11:49.525Z,21.37
2018-11-29T05:14:19.383Z,20.30
2018-11-29T05:16:49.261Z,23.03
2018-11-29T05:19:19.773Z,22.27
2018-11-29T05:21:49.748Z,22.43
2018-11-29T05:24:19.692Z,22.07
2018-11-29T05:26:49.431Z,23.80
2018-11-29T05:29:20.001Z,23.93
2018-11-29T05:31:50.367Z,22.07
2018-11-29T05:34:20.102Z,23.83
2018-11-29T05:36:49.880Z,25.40
2018-11-29T05:39:20.312Z,23.00
2018-11-29T05:41:50.366Z,22.17
2018-11-29T05:44:20.675Z,20.67
2018-11-29T05:46:50.487Z,26.43
2018-11-29T05:49:20.333Z,21.20
2018-11-29T05:51:50.177Z,23.00
2018-11-29T05:54:20.596Z,22.43
2018-11-29T05:56:50.506Z,20.27
2018-11-29T05:59:20.811Z,23.27
2018-11-29T06:01:51.906Z,22.53
2018-11-29T06:04:21.614Z,19.33
2018-11-29T06:06:51.367Z,20.80
2018-11-29T06:09:21.678Z,24.00
2018-11-29T06:11:51.581Z,18.97
2018-11-29T06:14:21.512Z,23.37
2018-11-29T06:16:51.591Z,22.77
2018-11-29T06:19:21.637Z,19.30
2018-11-29T06:21:51.631Z,21.47
2018-11-29T06:24:21.452Z,23.27
2018-11-29T06:26:51.241Z,22.90
2018-11-29T06:29:21.055Z,25.13
2018-11-29T06:31:51.653Z,22.67
2018-11-29T06:34:21.581Z,22.63
2018-11-29T06:36:51.891Z,24.30
2018-11-29T06:39:22.127Z,25.10
2018-11-29T06:41:52.081Z,20.80
2018-11-29T06:44:22.037Z,22.20
2018-11-29T06:46:51.846Z,24.37
2018-11-29T06:49:21.671Z,21.80
2018-11-29T06:51:51.670Z,22.63
2018-11-29T06:54:21.555Z,23.97
2018-11-29T06:56:51.361Z,24.97
2018-11-29T06:59:21.487Z,22.23
2018-11-29T07:01:51.469Z,23.57
2018-11-29T07:04:21.308Z,23.50
2018-11-29T07:06:51.313Z,24.83
2018-11-29T07:09:21.090Z,22.13
2018-11-29T07:11:51.627Z,25.77
2018-11-29T07:14:21.446Z,24.93
2018-11-29T07:16:51.532Z,21.17
2018-11-29T07:19:21.463Z,23.50
2018-11-29T07:21:53.846Z,27.17
2018-11-29T07:24:24.683Z,23.57
2018-11-29T07:26:54.661Z,21.67
2018-11-29T07:29:24.619Z,24.53
2018-11-29T07:31:54.482Z,22.80
2018-11-29T07:34:24.365Z,21.03
2018-11-29T07:36:54.449Z,23.20
2018-11-29T07:39:25.025Z,22.70
2018-11-29T07:41:54.981Z,23.90
2018-11-29T07:44:24.729Z,23.40
2018-11-29T07:46:54.702Z,25.63
2018-11-29T07:49:24.520Z,23.30
2018-11-29T07:51:54.392Z,21.50
2018-11-29T07:54:24.166Z,22.77
2018-11-29T07:56:54.372Z,23.50
2018-11-29T07:59:24.215Z,23.87
2018-11-29T08:01:54.691Z,21.57
2018-11-29T08:04:24.621Z,23.43
2018-11-29T08:06:55.138Z,24.57
2018-11-29T08:09:25.183Z,27.27
2018-11-29T08:11:55.365Z,33.87
2018-11-29T08:14:25.171Z,89.03
2018-11-29T08:16:55.276Z,63.17
2018-11-29T08:19:25.146Z,51.07
2018-11-29T08:21:55.320Z,30.80
2018-11-29T08:24:25.359Z,24.87
2018-11-29T08:26:56.432Z,30.57
2018-11-29T08:29:26.244Z,26.80
2018-11-29T08:31:57.151Z,25.27
2018-11-29T08:34:28.236Z,23.67
2018-11-29T08:36:58.264Z,21.90
2018-11-29T08:39:28.607Z,23.33
2018-11-29T08:41:58.417Z,23.67
2018-11-29T08:44:28.214Z,23.87
2018-11-29T08:46:58.195Z,24.87
2018-11-29T08:49:28.085Z,26.00
2018-11-29T08:51:58.242Z,24.23
2018-11-29T08:54:28.080Z,23.90
2018-11-29T08:56:58.202Z,28.37
2018-11-29T08:59:28.219Z,22.53
2018-11-29T09:01:58.467Z,22.30
2018-11-29T09:04:28.882Z,26.43
2018-11-29T09:06:59.276Z,21.67
2018-11-29T09:09:29.143Z,22.00
2018-11-29T09:11:59.496Z,21.07
2018-11-29T09:14:29.336Z,24.17
2018-11-29T09:16:59.699Z,21.53
2018-11-29T09:19:29.606Z,19.57
2018-11-29T09:21:59.905Z,22.73
2018-11-29T09:24:29.839Z,20.97
2018-11-29T09:27:00.502Z,21.27
2018-11-29T09:29:30.591Z,20.90
2018-11-29T09:32:01.311Z,22.13
2018-11-29T09:34:31.235Z,21.27
2018-11-29T09:37:01.258Z,19.77
2018-11-29T09:39:31.144Z,22.13
2018-11-29T09:42:02.953Z,20.47
2018-11-29T09:44:31.470Z,21.53
2018-11-29T09:47:01.711Z,20.90
2018-11-29T09:49:31.722Z,23.87
2018-11-29T09:52:02.176Z,25.03
2018-11-29T09:54:32.000Z,29.20
2018-11-29T09:57:02.038Z,43.60
2018-11-29T09:59:32.607Z,34.40
2018-11-29T10:02:02.959Z,19.53
2018-11-29T10:04:32.700Z,35.33
2018-11-29T10:07:03.236Z,19.70
2018-11-29T10:09:33.032Z,19.17
2018-11-29T10:12:03.367Z,18.60
2018-11-29T10:14:33.539Z,19.33
2018-11-29T10:17:04.565Z,58.10
2018-11-29T10:19:34.363Z,19.23
2018-11-29T10:22:04.646Z,19.23
2018-11-29T10:24:34.416Z,20.50
2018-11-29T10:27:04.884Z,31.37
2018-11-29T10:29:35.125Z,18.97
2018-11-29T10:32:05.481Z,18.07
2018-11-29T10:34:35.342Z,18.70
2018-11-29T10:37:05.312Z,19.37
2018-11-29T10:39:35.336Z,19.30
2018-11-29T10:42:05.320Z,19.07
2018-11-29T10:44:35.115Z,17.30
2018-11-29T10:47:05.119Z,19.47
2018-11-29T10:49:35.012Z,18.77
2018-11-29T10:52:05.187Z,25.87
2018-11-29T10:54:35.003Z,24.00
2018-11-29T10:57:05.404Z,49.97
2018-11-29T10:59:35.741Z,27.33
2018-11-29T11:02:10.951Z,17.90
2018-11-29T11:04:40.904Z,17.90
2018-11-29T11:07:11.140Z,25.87
2018-11-29T11:09:41.164Z,25.20
2018-11-29T11:12:10.945Z,18.13
2018-11-29T11:14:40.716Z,16.87
2018-11-29T11:17:10.464Z,30.17
2018-11-29T11:19:40.220Z,30.37
2018-11-29T11:22:10.264Z,18.10
2018-11-29T11:24:40.026Z,19.50
2018-11-29T11:27:09.850Z,18.47
2018-11-29T11:29:40.872Z,16.40
2018-11-29T11:32:10.775Z,23.30
2018-11-29T11:34:40.531Z,22.67
2018-11-29T11:37:10.733Z,18.60
2018-11-29T11:39:40.629Z,21.33
2018-11-29T11:42:10.790Z,21.20
2018-11-29T11:44:41.192Z,19.20
2018-11-29T11:47:10.961Z,21.43
2018-11-29T11:49:40.733Z,20.50
2018-11-29T11:52:10.907Z,20.57
2018-11-29T11:54:40.596Z,20.07
2018-11-29T11:57:12.713Z,19.37
2018-11-29T11:59:42.485Z,23.10
2018-11-29T12:02:12.486Z,20.77
2018-11-29T12:04:42.363Z,20.10
2018-11-29T12:07:12.477Z,19.63
2018-11-29T12:09:42.247Z,22.00
2018-11-29T12:12:12.960Z,21.40
2018-11-29T12:14:43.370Z,21.33
2018-11-29T12:17:13.620Z,20.30
2018-11-29T12:19:43.489Z,20.20
2018-11-29T12:22:13.560Z,21.10
2018-11-29T12:24:43.413Z,17.50
2018-11-29T12:27:13.666Z,20.50
2018-11-29T12:29:43.574Z,21.77
2018-11-29T12:32:13.839Z,19.70
2018-11-29T12:34:43.686Z,24.03
2018-11-29T12:37:13.935Z,19.73
2018-11-29T12:39:43.698Z,21.40
2018-11-29T12:42:13.722Z,20.33
2018-11-29T12:44:43.599Z,20.13
2018-11-29T12:47:13.835Z,22.87
2018-11-29T12:49:43.799Z,23.13
2018-11-29T12:52:13.793Z,20.93
2018-11-29T12:54:43.655Z,17.73
2018-11-29T12:57:13.914Z,21.57
2018-11-29T12:59:43.775Z,18.50
2018-11-29T13:02:14.639Z,18.60
2018-11-29T13:04:44.427Z,18.17
2018-11-29T13:07:14.795Z,17.67
2018-11-29T13:09:44.856Z,19.20
2018-11-29T13:12:16.309Z,17.90
2018-11-29T13:14:46.239Z,19.10
2018-11-29T13:17:16.463Z,15.83
2018-11-29T13:19:46.454Z,16.57
2018-11-29T13:22:17.030Z,17.07
2018-11-29T13:24:47.098Z,18.10
2018-11-29T13:27:17.247Z,16.63
2018-11-29T13:29:47.383Z,16.77
2018-11-29T13:32:17.664Z,18.23
2018-11-29T13:34:47.818Z,17.50
2018-11-29T13:37:18.518Z,19.63
2018-11-29T13:39:48.500Z,17.33
2018-11-29T13:42:19.778Z,19.53
2018-11-29T13:44:49.964Z,18.70
2018-11-29T13:47:20.719Z,16.43
2018-11-29T13:49:50.819Z,19.97
2018-11-29T13:52:20.799Z,18.07
2018-11-29T13:54:50.653Z,19.60
2018-11-29T13:57:20.910Z,19.77
2018-11-29T13:59:50.995Z,20.30
2018-11-29T14:02:21.938Z,19.80
2018-11-29T14:04:52.079Z,19.37
2018-11-29T14:07:22.416Z,22.17
2018-11-29T14:09:52.350Z,21.03
2018-11-29T14:12:22.137Z,22.07
2018-11-29T14:14:52.003Z,21.93
2018-11-29T14:17:22.891Z,19.00
2018-11-29T14:19:53.319Z,21.83
2018-11-29T14:22:23.238Z,21.73
2018-11-29T14:24:53.186Z,16.47
2018-11-29T14:27:23.214Z,21.53
2018-11-29T14:29:53.235Z,19.07
2018-11-29T14:32:23.392Z,20.13
2018-11-29T14:34:53.775Z,19.43
2018-11-29T14:37:24.843Z,19.17
2018-11-29T14:39:55.014Z,19.57
2018-11-29T14:42:24.933Z,17.83
2018-11-29T14:44:55.398Z,19.57
2018-11-29T14:47:26.199Z,20.57
2018-11-29T14:49:56.666Z,19.13
2018-11-29T14:52:26.744Z,18.77
2018-11-29T14:54:56.690Z,19.33
2018-11-29T14:57:26.798Z,19.43
2018-11-29T14:59:57.533Z,18.23
2018-11-29T15:02:27.865Z,17.77
2018-11-29T15:04:58.692Z,19.47
2018-11-29T15:07:28.582Z,19.47
2018-11-29T15:09:58.469Z,19.53
2018-11-29T15:12:28.684Z,17.83
2018-11-29T15:14:58.448Z,22.93
2018-11-29T15:17:28.302Z,23.57
2018-11-29T15:19:58.138Z,21.13
2018-11-29T15:22:27.990Z,22.23
2018-11-29T15:24:57.818Z,21.37
2018-11-29T15:27:28.577Z,22.20
2018-11-29T15:29:58.442Z,20.40
2018-11-29T15:32:28.316Z,19.40
2018-11-29T15:34:58.137Z,22.77
2018-11-29T15:37:28.303Z,22.90
2018-11-29T15:39:58.147Z,20.97
2018-11-29T15:42:28.539Z,20.10
2018-11-29T15:44:58.432Z,19.17
2018-11-29T15:47:28.691Z,19.93
2018-11-29T15:49:58.947Z,20.13
2018-11-29T15:52:29.130Z,19.27
2018-11-29T15:54:58.942Z,19.60
2018-11-29T15:57:34.682Z,19.97
2018-11-29T16:00:00.284Z,19.63
2018-11-29T16:02:30.135Z,20.63
2018-11-29T16:05:00.036Z,20.77
2018-11-29T16:07:30.275Z,23.03
2018-11-29T16:10:00.109Z,21.27
2018-11-29T16:12:30.155Z,21.80
2018-11-29T16:15:00.072Z,24.87
2018-11-29T16:17:30.653Z,24.67
2018-11-29T16:20:00.745Z,25.23
2018-11-29T16:22:30.947Z,26.50
2018-11-29T16:25:01.041Z,24.43
2018-11-29T16:27:31.029Z,22.40
2018-11-29T16:30:01.548Z,26.30
2018-11-29T16:32:31.745Z,24.93
2018-11-29T16:35:01.594Z,25.63
2018-11-29T16:37:32.028Z,22.47
2018-11-29T16:40:01.955Z,22.47
2018-11-29T16:42:32.195Z,26.13
2018-11-29T16:45:02.063Z,21.57
2018-11-29T16:47:32.183Z,19.50
2018-11-29T16:50:01.911Z,21.77
2018-11-29T16:52:32.383Z,21.40
2018-11-29T16:55:02.371Z,19.97
2018-11-29T16:57:32.558Z,20.33
2018-11-29T17:00:02.239Z,20.80
2018-11-29T17:02:32.437Z,21.80
2018-11-29T17:05:02.297Z,21.90
2018-11-29T17:07:32.576Z,22.87
2018-11-29T17:10:02.567Z,23.70
2018-11-29T17:12:32.859Z,22.63
2018-11-29T17:15:02.684Z,21.73
2018-11-29T17:17:32.939Z,22.13
2018-11-29T17:20:03.286Z,22.53
2018-11-29T17:22:33.766Z,20.37
2018-11-29T17:25:03.865Z,22.67
2018-11-29T17:27:34.333Z,22.23
2018-11-29T17:30:04.326Z,18.07
2018-11-29T17:32:34.716Z,21.30
2018-11-29T17:35:04.743Z,19.73
2018-11-29T17:37:35.051Z,20.50
2018-11-29T17:40:07.377Z,21.07
2018-11-29T17:42:37.630Z,21.03
2018-11-29T17:45:11.887Z,19.97
2018-11-29T17:47:43.486Z,21.67
2018-11-29T17:50:25.392Z,19.73
2018-11-29T17:52:55.214Z,22.50
2018-11-29T17:55:25.267Z,20.57
2018-11-29T17:57:55.081Z,22.03
2018-11-29T18:00:27.897Z,23.00
2018-11-29T18:02:58.342Z,20.87
2018-11-29T18:05:28.186Z,22.43
2018-11-29T18:07:58.151Z,20.37
2018-11-29T18:10:32.403Z,21.47
2018-11-29T18:13:19.028Z,18.87
2018-11-29T18:15:48.774Z,21.27
2018-11-29T18:18:18.826Z,21.30
2018-11-29T18:20:48.846Z,22.57
2018-11-29T18:23:18.835Z,20.57
2018-11-29T18:25:48.763Z,24.00
2018-11-29T18:28:18.663Z,19.07
2018-11-29T18:30:48.591Z,18.47
2018-11-29T18:33:18.587Z,15.83
2018-11-29T18:35:49.505Z,19.93
2018-11-29T18:38:19.378Z,19.17
2018-11-29T18:40:49.234Z,17.13
2018-11-29T18:43:19.138Z,18.00
2018-11-29T18:45:49.088Z,16.27
2018-11-29T18:48:19.418Z,16.67
2018-11-29T18:50:49.456Z,16.23
2018-11-29T18:53:20.082Z,13.90
2018-11-29T18:55:50.241Z,15.40
2018-11-29T18:58:20.411Z,16.23
2018-11-29T19:00:50.589Z,16.50
2018-11-29T19:03:21.270Z,17.37
2018-11-29T19:05:52.029Z,13.20
2018-11-29T19:08:22.197Z,16.10
2018-11-29T19:10:52.262Z,16.23
2018-11-29T19:13:22.417Z,17.80
2018-11-29T19:15:53.342Z,15.70
2018-11-29T19:18:23.346Z,15.70
2018-11-29T19:20:53.678Z,14.20
2018-11-29T19:23:23.524Z,13.87
2018-11-29T19:25:54.042Z,15.10
2018-11-29T19:28:24.799Z,14.97
2018-11-29T19:30:54.821Z,14.63
2018-11-29T19:33:27.017Z,12.97
2018-11-29T19:35:57.519Z,14.33
2018-11-29T19:38:28.112Z,13.23
2018-11-29T19:40:58.156Z,13.77
2018-11-29T19:43:27.930Z,12.63
2018-11-29T19:45:57.841Z,13.00
2018-11-29T19:48:27.957Z,13.50
2018-11-29T19:50:58.220Z,15.70
2018-11-29T19:53:28.520Z,14.20
2018-11-29T19:56:01.617Z,14.90
2018-11-29T19:58:32.214Z,13.90
2018-11-29T20:01:02.213Z,15.03
2018-11-29T20:03:32.388Z,13.63
2018-11-29T20:06:02.310Z,15.40
2018-11-29T20:08:32.532Z,14.47
2018-11-29T20:11:02.551Z,13.47
2018-11-29T20:13:32.586Z,14.73
2018-11-29T20:16:02.820Z,13.07
2018-11-29T20:18:32.818Z,14.50
2018-11-29T20:21:03.098Z,16.13
2018-11-29T20:23:33.247Z,13.93
2018-11-29T20:26:03.479Z,14.80
2018-11-29T20:28:34.304Z,16.27
2018-11-29T20:31:04.626Z,15.67
2018-11-29T20:33:34.882Z,13.97
2018-11-29T20:36:05.018Z,15.90
2018-11-29T20:38:35.189Z,16.03
2018-11-29T20:41:05.648Z,16.37
2018-11-29T20:43:36.404Z,19.40
2018-11-29T20:46:06.728Z,14.27
2018-11-29T20:48:37.330Z,17.83
2018-11-29T20:51:07.756Z,15.80
2018-11-29T20:53:40.437Z,13.53
2018-11-29T20:56:15.280Z,16.40
2018-11-29T20:58:45.541Z,14.30
2018-11-29T21:01:15.823Z,14.50
2018-11-29T21:03:46.257Z,15.07
2018-11-29T21:06:16.299Z,14.37
2018-11-29T21:08:46.502Z,14.60
2018-11-29T21:11:16.801Z,15.67
2018-11-29T21:13:46.894Z,15.20
2018-11-29T21:16:17.362Z,14.43
2018-11-29T21:18:47.642Z,15.33
2018-11-29T21:21:17.655Z,17.97
2018-11-29T21:23:47.716Z,15.00
2018-11-29T21:26:17.964Z,17.87
2018-11-29T21:28:48.514Z,13.10
2018-11-29T21:31:18.870Z,14.23
2018-11-29T21:33:49.185Z,13.43
2018-11-29T21:36:19.249Z,13.93
2018-11-29T21:38:49.864Z,13.77
2018-11-29T21:41:20.751Z,17.63
2018-11-29T21:43:51.219Z,13.03
2018-11-29T21:46:21.833Z,14.97
2018-11-29T21:48:52.563Z,13.43
2018-11-29T21:51:22.883Z,16.70
2018-11-29T21:53:53.569Z,13.33
2018-11-29T21:56:24.143Z,16.47
2018-11-29T21:58:54.704Z,14.63
2018-11-29T22:01:25.140Z,17.17
2018-11-29T22:03:55.386Z,15.90
2018-11-29T22:06:26.102Z,13.27
2018-11-29T22:08:56.379Z,14.03
2018-11-29T22:11:26.668Z,14.63
2018-11-29T22:13:56.646Z,17.53
2018-11-29T22:16:26.960Z,14.67
2018-11-29T22:18:56.909Z,14.23
2018-11-29T22:21:26.967Z,17.43
2018-11-29T22:23:57.099Z,14.67
2018-11-29T22:26:27.634Z,16.13
2018-11-29T22:29:00.677Z,16.10
2018-11-29T22:31:27.550Z,19.17
2018-11-29T22:33:57.898Z,19.73
2018-11-29T22:36:27.863Z,17.10
2018-11-29T22:38:58.584Z,20.03
2018-11-29T22:41:28.577Z,17.63
2018-11-29T22:43:58.865Z,17.37
2018-11-29T22:46:28.889Z,18.33
2018-11-29T22:48:59.203Z,18.37
2018-11-29T22:51:28.942Z,19.70
2018-11-29T22:53:59.049Z,16.90
2018-11-29T22:56:28.912Z,18.77
2018-11-29T22:58:59.030Z,17.23
2018-11-29T23:01:29.334Z,17.83
2018-11-29T23:03:59.439Z,15.50
2018-11-29T23:06:29.513Z,15.30
2018-11-29T23:09:00.123Z,15.60
2018-11-29T23:11:30.907Z,15.87
2018-11-29T23:14:01.137Z,16.03
2018-11-29T23:16:31.102Z,15.40
2018-11-29T23:19:01.358Z,17.80
2018-11-29T23:21:31.168Z,15.70
2018-11-29T23:24:01.514Z,17.50
2018-11-29T23:26:31.340Z,16.93
2018-11-29T23:29:01.808Z,15.07
2018-11-29T23:31:31.662Z,16.30
2018-11-29T23:34:01.902Z,14.30
2018-11-29T23:36:31.638Z,14.40
2018-11-29T23:39:01.883Z,15.23
2018-11-29T23:41:32.737Z,14.23
2018-11-29T23:44:02.838Z,16.10
2018-11-29T23:46:33.442Z,13.90
2018-11-29T23:49:03.507Z,15.70
2018-11-29T23:51:33.573Z,14.23
2018-11-29T23:54:03.810Z,13.90
2018-11-29T23:56:33.740Z,14.67
2018-11-29T23:59:06.044Z,15.77
